Time;durP1;ratioP1;P1;durP2;ratioP2;P2;SDS_P1;SDS_P2;PMS_P1;PMS_P2;Temp;Humidity;BMP_temperature;BMP_pressure;BME280_temperature;BME280_humidity;BME280_pressure;Samples;Min_cycle;Max_cycle;Signal;HPM_P1;HPM_P2
2021/07/06 00:03:32;;;;;;;1.03;0.93;;;20.10;82.20;;;;;;10453766;28;20213;-28
2021/07/06 00:08:54;;;;;;;0.90;0.90;;;20.00;82.10;;;;;;10389636;28;20228;-31
2021/07/06 00:14:16;;;;;;;0.80;0.80;;;20.00;82.10;;;;;;10413159;28;20186;-28
2021/07/06 00:19:40;;;;;;;0.70;0.63;;;20.10;82.20;;;;;;10414014;28;20902;-26
2021/07/06 00:25:03;;;;;;;0.90;0.90;;;20.00;82.20;;;;;;10418337;28;20224;-28
2021/07/06 00:30:26;;;;;;;0.90;0.77;;;20.10;82.20;;;;;;10413889;28;20218;-28
2021/07/06 00:35:49;;;;;;;0.70;0.70;;;20.10;82.30;;;;;;10432574;28;20193;-28
2021/07/06 00:41:11;;;;;;;1.10;1.00;;;20.10;82.20;;;;;;10411314;28;20185;-26
2021/07/06 00:46:33;;;;;;;0.80;0.80;;;20.10;82.20;;;;;;10418179;28;20228;-26
2021/07/06 00:51:57;;;;;;;0.67;0.67;;;20.10;82.20;;;;;;10449616;28;20201;-27
2021/07/06 00:57:28;;;;;;;1.17;0.80;;;20.10;82.20;;;;;;10411909;28;20228;-28
2021/07/06 01:02:51;;;;;;;1.30;0.87;;;20.10;82.20;;;;;;10415857;28;20332;-28
2021/07/06 01:08:15;;;;;;;1.33;0.77;;;20.10;82.20;;;;;;10436810;28;20220;-29
2021/07/06 01:13:37;;;;;;;1.17;1.07;;;20.00;82.10;;;;;;10450413;28;20203;-27
2021/07/06 01:18:59;;;;;;;0.73;0.73;;;20.10;82.20;;;;;;10428673;28;20228;-27
2021/07/06 01:24:22;;;;;;;0.73;0.73;;;20.00;82.20;;;;;;10435692;28;20217;-27
2021/07/06 01:29:45;;;;;;;0.90;0.90;;;20.10;82.20;;;;;;10441257;28;20214;-28
2021/07/06 01:35:08;;;;;;;1.20;0.90;;;20.10;82.20;;;;;;10402287;28;20191;-30
2021/07/06 01:40:32;;;;;;;0.70;0.70;;;20.10;82.20;;;;;;10402915;28;20237;-27
2021/07/06 01:45:54;;;;;;;0.80;0.80;;;20.10;82.20;;;;;;10428438;28;20220;-27
2021/07/06 01:51:16;;;;;;;0.70;0.70;;;20.10;82.20;;;;;;10243539;28;20219;-26
2021/07/06 01:56:42;;;;;;;0.70;0.70;;;20.00;82.10;;;;;;10242171;29;20221;-27
2021/07/06 02:02:04;;;;;;;1.50;0.90;;;20.10;82.30;;;;;;10219179;29;20631;-27
2021/07/06 02:07:26;;;;;;;0.93;0.80;;;20.10;82.20;;;;;;10242708;29;20757;-30
2021/07/06 02:12:50;;;;;;;0.70;0.70;;;20.10;82.20;;;;;;10241190;29;20216;-27
2021/07/06 02:18:17;;;;;;;0.67;0.67;;;20.10;82.20;;;;;;10214013;29;20214;-27
2021/07/06 02:23:39;;;;;;;0.70;0.70;;;20.10;82.20;;;;;;10338286;28;20300;-27
2021/07/06 02:29:03;;;;;;;0.97;0.90;;;20.10;82.20;;;;;;10208234;29;20213;-26
2021/07/06 02:34:25;;;;;;;0.90;0.80;;;20.00;82.20;;;;;;10320789;28;20771;-27
2021/07/06 02:39:48;;;;;;;0.80;0.77;;;20.10;82.20;;;;;;10341029;28;20221;-27
2021/07/06 02:45:14;;;;;;;1.40;0.87;;;20.00;82.10;;;;;;10235243;29;20216;-27
2021/07/06 02:50:39;;;;;;;0.77;0.77;;;20.10;82.30;;;;;;10428760;28;20221;-27
2021/07/06 02:56:01;;;;;;;0.97;0.90;;;20.10;82.20;;;;;;10428782;28;20203;-27
2021/07/06 03:01:24;;;;;;;1.17;0.87;;;20.00;82.20;;;;;;10416490;28;20198;-27
2021/07/06 03:06:47;;;;;;;0.90;0.90;;;20.10;82.20;;;;;;10416365;28;20221;-28
2021/07/06 03:12:09;;;;;;;0.80;0.73;;;20.10;82.20;;;;;;10417999;28;20212;-27
2021/07/06 03:17:33;;;;;;;0.93;0.93;;;20.10;82.20;;;;;;10413777;28;20224;-28
2021/07/06 03:22:56;;;;;;;1.10;1.00;;;20.10;82.20;;;;;;10430515;28;20204;-29
2021/07/06 03:28:18;;;;;;;0.80;0.73;;;20.00;82.20;;;;;;10453364;28;20213;-27
2021/07/06 03:33:41;;;;;;;0.80;0.80;;;20.00;82.20;;;;;;10438192;28;20786;-28
2021/07/06 03:39:03;;;;;;;0.93;0.93;;;20.10;82.20;;;;;;10422752;28;20214;-27
2021/07/06 03:44:25;;;;;;;0.87;0.87;;;20.10;82.20;;;;;;10417072;28;20224;-27
2021/07/06 03:49:49;;;;;;;0.83;0.83;;;20.00;82.20;;;;;;10457024;22;20230;-23
2021/07/06 03:55:13;;;;;;;1.80;0.83;;;20.10;82.20;;;;;;10454668;28;20195;-23
2021/07/06 04:00:35;;;;;;;0.80;0.80;;;20.10;82.20;;;;;;10455881;28;20244;-21
2021/07/06 04:05:58;;;;;;;1.00;0.70;;;20.10;82.20;;;;;;10455261;28;20209;-23
2021/07/06 04:11:20;;;;;;;1.33;0.80;;;20.10;82.20;;;;;;10467623;28;20199;-23
2021/07/06 04:16:44;;;;;;;0.80;0.77;;;20.10;82.20;;;;;;10473690;28;20736;-23
2021/07/06 04:22:07;;;;;;;0.90;0.90;;;20.10;82.20;;;;;;10468754;28;20631;-21
2021/07/06 04:27:29;;;;;;;1.23;1.00;;;20.10;82.20;;;;;;10469933;28;20568;-24
2021/07/06 04:32:51;;;;;;;0.80;0.80;;;20.10;82.10;;;;;;10469499;28;20203;-23
2021/07/06 04:38:15;;;;;;;0.83;0.80;;;20.10;82.20;;;;;;10468779;28;20596;-24
2021/07/06 04:43:37;;;;;;;0.87;0.87;;;20.10;82.10;;;;;;10461416;28;20193;-22
2021/07/06 04:48:59;;;;;;;0.90;0.90;;;20.00;82.10;;;;;;10463828;28;20224;-23
2021/07/06 04:54:24;;;;;;;0.70;0.70;;;20.10;82.20;;;;;;10481474;28;20193;-20
2021/07/06 04:59:46;;;;;;;0.50;0.50;;;20.10;82.20;;;;;;10453024;28;20248;-23
2021/07/06 05:05:11;;;;;;;0.83;0.83;;;20.10;82.20;;;;;;10452720;28;20205;-22
2021/07/06 05:10:35;;;;;;;2.30;1.10;;;20.10;82.20;;;;;;10450556;28;20605;-21
2021/07/06 05:15:57;;;;;;;3.40;1.40;;;20.00;82.30;;;;;;10444230;28;20587;-24
2021/07/06 05:21:19;;;;;;;2.10;1.10;;;20.00;82.60;;;;;;10478614;28;20223;-22
2021/07/06 05:26:43;;;;;;;2.50;1.17;;;20.00;83.30;;;;;;10474454;28;20232;-23
2021/07/06 05:32:06;;;;;;;2.93;1.00;;;20.00;83.30;;;;;;10478396;28;20216;-22
2021/07/06 05:37:28;;;;;;;1.00;0.90;;;20.00;83.40;;;;;;10449137;28;20221;-22
2021/07/06 05:42:51;;;;;;;2.13;0.90;;;20.00;83.00;;;;;;10452503;28;20189;-23
2021/07/06 05:48:15;;;;;;;3.43;1.00;;;20.00;82.90;;;;;;10451185;28;20615;-24
2021/07/06 05:53:37;;;;;;;1.90;1.10;;;20.00;82.90;;;;;;10447849;28;20204;-22
2021/07/06 05:59:00;;;;;;;1.40;0.90;;;20.00;83.20;;;;;;10457300;28;20217;-22
2021/07/06 06:04:22;;;;;;;2.23;1.33;;;20.10;83.40;;;;;;10459065;28;20212;-23
2021/07/06 06:09:44;;;;;;;2.67;1.10;;;20.10;83.80;;;;;;10459364;28;20221;-23
2021/07/06 06:15:10;;;;;;;5.57;1.27;;;20.20;83.80;;;;;;10459804;28;20196;-23
2021/07/06 06:20:32;;;;;;;1.87;1.17;;;20.20;83.80;;;;;;10468991;28;20216;-23
2021/07/06 06:25:55;;;;;;;3.07;1.10;;;20.20;83.60;;;;;;10459872;28;20224;-23
2021/07/06 06:31:19;;;;;;;2.40;1.13;;;20.20;83.10;;;;;;10469985;28;20574;-22
2021/07/06 06:36:41;;;;;;;2.57;1.13;;;20.20;83.50;;;;;;10459029;28;20213;-23
2021/07/06 06:42:03;;;;;;;2.40;0.87;;;20.20;83.20;;;;;;10486846;28;20201;-22
2021/07/06 06:47:27;;;;;;;1.40;0.80;;;20.30;83.80;;;;;;10482938;28;20217;-24
2021/07/06 06:52:49;;;;;;;1.30;1.00;;;20.30;83.20;;;;;;10423670;28;20687;-23
2021/07/06 06:58:11;;;;;;;3.60;1.00;;;20.30;83.00;;;;;;10424699;28;20710;-22
2021/07/06 07:03:34;;;;;;;1.77;0.90;;;20.40;83.10;;;;;;10447808;28;20575;-22
2021/07/06 07:08:56;;;;;;;1.57;1.00;;;20.40;83.20;;;;;;10424398;28;20228;-24
2021/07/06 07:14:18;;;;;;;0.97;0.77;;;20.40;83.20;;;;;;10444944;28;20204;-24
2021/07/06 07:19:42;;;;;;;1.97;1.00;;;20.50;83.00;;;;;;10466684;28;20221;-23
2021/07/06 07:25:06;;;;;;;1.50;0.97;;;20.50;83.20;;;;;;10458107;28;20587;-22
2021/07/06 07:30:28;;;;;;;9.17;1.20;;;20.50;83.20;;;;;;10457710;28;20228;-23
2021/07/06 07:35:51;;;;;;;7.27;1.80;;;20.50;82.80;;;;;;10476269;28;20200;-23
2021/07/06 07:41:13;;;;;;;15.13;2.00;;;20.50;83.20;;;;;;10490597;28;20212;-22
2021/07/06 07:46:35;;;;;;;19.93;2.17;;;20.50;83.10;;;;;;10448246;28;20216;-22
2021/07/06 07:51:59;;;;;;;15.73;2.10;;;20.40;83.00;;;;;;10487269;28;20683;-23
2021/07/06 07:57:26;;;;;;;12.00;2.10;;;20.40;82.90;;;;;;10462487;28;20683;-23
2021/07/06 08:02:49;;;;;;;7.33;1.70;;;20.40;83.10;;;;;;10456313;28;20201;-23
2021/07/06 08:08:12;;;;;;;14.87;1.80;;;20.40;83.10;;;;;;10454902;28;20232;-23
2021/07/06 08:13:34;;;;;;;7.77;2.03;;;20.40;83.20;;;;;;10420105;28;20596;-24
2021/07/06 08:18:56;;;;;;;4.80;1.50;;;20.40;83.30;;;;;;10454633;28;20220;-23
2021/07/06 08:24:20;;;;;;;8.80;1.67;;;20.50;83.60;;;;;;10459507;28;20225;-22
2021/07/06 08:29:42;;;;;;;3.80;1.37;;;20.40;83.60;;;;;;10453779;28;20283;-22
2021/07/06 08:35:06;;;;;;;2.10;1.30;;;20.40;83.50;;;;;;10447268;28;20193;-22
2021/07/06 08:40:30;;;;;;;7.07;1.60;;;20.40;83.70;;;;;;10451905;28;20217;-22
2021/07/06 08:45:52;;;;;;;4.10;1.40;;;20.40;83.40;;;;;;10453888;28;20217;-25
2021/07/06 08:51:18;;;;;;;3.63;0.97;;;20.40;83.40;;;;;;10432457;28;20220;-24
2021/07/06 08:56:42;;;;;;;7.37;1.80;;;20.40;83.50;;;;;;10453251;28;20200;-22
2021/07/06 09:02:04;;;;;;;2.80;0.90;;;20.40;83.70;;;;;;10454864;28;20200;-23
2021/07/06 09:07:40;;;;;;;5.10;1.30;;;20.40;83.40;;;;;;10442087;28;20225;-23
2021/07/06 09:13:18;;;;;;;7.47;1.50;;;20.50;83.50;;;;;;10454181;28;20193;-23
2021/07/06 09:18:43;;;;;;;3.10;1.57;;;20.50;83.30;;;;;;10478261;28;20698;-23
2021/07/06 09:24:05;;;;;;;1.10;1.00;;;20.50;83.80;;;;;;10453156;28;20656;-24
2021/07/06 09:29:29;;;;;;;2.43;1.20;;;20.50;83.50;;;;;;10450039;28;20220;-26
2021/07/06 09:34:51;;;;;;;2.30;1.37;;;20.40;83.30;;;;;;10453429;28;20207;-23
2021/07/06 09:40:32;;;;;;;2.17;0.90;;;20.40;83.50;;;;;;10450264;28;20225;-23
2021/07/06 09:46:05;;;;;;;2.60;1.10;;;20.40;83.40;;;;;;10438481;28;20221;-23
2021/07/06 09:51:27;;;;;;;2.63;0.90;;;20.40;83.70;;;;;;10311726;22;20235;-32
2021/07/06 09:56:51;;;;;;;1.40;1.23;;;20.40;83.60;;;;;;10273925;28;20192;-28
2021/07/06 10:02:20;;;;;;;2.60;1.10;;;20.40;83.80;;;;;;10240777;29;20232;-26
2021/07/06 10:07:42;;;;;;;2.27;1.13;;;20.40;83.40;;;;;;10242669;29;20581;-28
2021/07/06 10:13:05;;;;;;;1.73;1.17;;;20.40;83.70;;;;;;10200937;29;20205;-32
2021/07/06 10:18:28;;;;;;;2.57;1.20;;;20.40;83.50;;;;;;10212408;29;20220;-28
2021/07/06 10:23:51;;;;;;;1.67;1.30;;;20.40;83.70;;;;;;10238962;28;20679;-27
2021/07/06 10:29:13;;;;;;;0.97;0.90;;;20.40;83.70;;;;;;10239011;29;20232;-27
2021/07/06 10:34:44;;;;;;;1.50;0.87;;;20.40;83.80;;;;;;10242742;28;20205;-29
2021/07/06 10:40:19;;;;;;;1.10;1.00;;;20.40;83.80;;;;;;10241478;29;20217;-27
2021/07/06 10:45:41;;;;;;;1.90;1.43;;;20.40;83.80;;;;;;10209214;29;20231;-27
2021/07/06 10:51:04;;;;;;;1.10;1.00;;;20.40;83.90;;;;;;10246106;29;20240;-28
2021/07/06 10:56:33;;;;;;;1.37;1.10;;;20.40;83.90;;;;;;10246296;29;20583;-30
2021/07/06 11:02:00;;;;;;;2.70;1.20;;;20.40;83.90;;;;;;10247972;29;20220;-27
2021/07/06 11:07:51;;;;;;;1.67;1.20;;;20.30;83.80;;;;;;10246842;29;20220;-26
2021/07/06 11:13:30;;;;;;;1.97;1.43;;;20.30;83.70;;;;;;10246442;29;20204;-26
2021/07/06 11:18:52;;;;;;;2.10;1.30;;;20.30;84.00;;;;;;10244690;29;20293;-30
2021/07/06 11:24:18;;;;;;;1.40;1.23;;;20.30;83.90;;;;;;10244959;29;20196;-26
2021/07/06 11:29:43;;;;;;;2.90;1.37;;;20.40;84.70;;;;;;10245439;29;20224;-30
2021/07/06 11:35:06;;;;;;;4.03;1.40;;;20.30;83.80;;;;;;10244677;28;20892;-28
2021/07/06 11:40:30;;;;;;;3.40;1.30;;;20.30;84.30;;;;;;10246665;29;20220;-26
2021/07/06 11:45:54;;;;;;;1.50;1.30;;;20.30;84.30;;;;;;10246218;29;20224;-28
2021/07/06 11:51:18;;;;;;;2.90;1.23;;;20.40;84.30;;;;;;10247919;28;20224;-27
2021/07/06 11:56:42;;;;;;;1.67;1.20;;;20.40;84.30;;;;;;10248429;29;20200;-26
2021/07/06 12:02:08;;;;;;;3.17;1.07;;;20.40;84.40;;;;;;10234309;28;20219;-26
2021/07/06 12:07:30;;;;;;;5.23;1.27;;;20.50;84.90;;;;;;10246150;29;20220;-29
2021/07/06 12:13:04;;;;;;;2.67;1.17;;;20.40;84.60;;;;;;10245457;29;20204;-29
2021/07/06 12:18:26;;;;;;;2.10;1.03;;;20.40;84.60;;;;;;10245439;29;20219;-26
2021/07/06 12:23:48;;;;;;;0.80;0.80;;;20.40;84.70;;;;;;10246504;28;20595;-26
2021/07/06 12:29:12;;;;;;;1.00;0.90;;;20.40;84.70;;;;;;10245594;28;20216;-26
2021/07/06 12:34:35;;;;;;;0.80;0.80;;;20.40;84.80;;;;;;10232708;29;20201;-27
2021/07/06 12:40:07;;;;;;;2.43;0.90;;;20.40;84.50;;;;;;10244460;29;20342;-29
2021/07/06 12:45:34;;;;;;;1.43;0.80;;;20.40;84.80;;;;;;10244373;29;20660;-27
2021/07/06 12:51:08;;;;;;;1.50;0.70;;;20.40;84.70;;;;;;10235972;29;20713;-26
2021/07/06 12:56:32;;;;;;;0.60;0.60;;;20.50;85.00;;;;;;10244713;28;20203;-28
2021/07/06 13:01:56;;;;;;;1.57;0.80;;;20.40;84.70;;;;;;10243140;28;20244;-26
2021/07/06 13:07:23;;;;;;;1.43;0.90;;;20.40;84.80;;;;;;10242207;29;20842;-27
2021/07/06 13:12:45;;;;;;;1.20;0.77;;;20.40;85.00;;;;;;10242213;29;20576;-27
2021/07/06 13:18:10;;;;;;;1.67;0.97;;;20.40;85.20;;;;;;10243491;29;20217;-27
2021/07/06 13:23:33;;;;;;;0.70;0.70;;;20.40;85.80;;;;;;10244008;28;20208;-26
2021/07/06 13:28:56;;;;;;;1.77;1.00;;;20.40;85.10;;;;;;10242144;29;20235;-29
2021/07/06 13:34:19;;;;;;;0.87;0.70;;;20.40;85.30;;;;;;10241926;28;20207;-26
2021/07/06 13:39:41;;;;;;;2.37;1.40;;;20.40;85.50;;;;;;10242158;28;20208;-26
2021/07/06 13:45:04;;;;;;;2.73;1.07;;;20.50;85.50;;;;;;10243763;28;20193;-26
2021/07/06 13:50:27;;;;;;;1.83;1.13;;;20.50;85.20;;;;;;10243212;29;20233;-26
2021/07/06 13:55:51;;;;;;;6.10;1.27;;;20.50;85.40;;;;;;10242990;28;20212;-28
2021/07/06 14:01:13;;;;;;;1.67;1.07;;;20.50;85.20;;;;;;10238097;29;20314;-26
2021/07/06 14:06:37;;;;;;;3.03;1.10;;;20.50;85.50;;;;;;10207571;29;20213;-27
2021/07/06 14:11:59;;;;;;;2.70;1.13;;;20.50;85.40;;;;;;10243282;28;21147;-27
2021/07/06 14:17:21;;;;;;;2.93;1.10;;;20.50;85.40;;;;;;10243028;29;20215;-26
2021/07/06 14:22:46;;;;;;;1.00;0.90;;;20.50;85.60;;;;;;10242745;28;20200;-26
2021/07/06 14:28:08;;;;;;;3.07;1.23;;;20.50;85.40;;;;;;10248550;29;20260;-27
2021/07/06 14:33:30;;;;;;;2.20;1.17;;;20.50;85.40;;;;;;10248895;28;20212;-27
2021/07/06 14:38:53;;;;;;;2.57;1.10;;;20.50;85.30;;;;;;10248096;29;20228;-27
2021/07/06 14:44:15;;;;;;;3.77;1.47;;;20.50;85.30;;;;;;10247290;29;20276;-30
2021/07/06 14:49:37;;;;;;;4.87;1.17;;;20.60;85.00;;;;;;10247856;29;20730;-29
2021/07/06 14:55:01;;;;;;;0.90;0.80;;;20.60;85.30;;;;;;10247821;28;20209;-27
2021/07/06 15:00:23;;;;;;;4.90;1.37;;;20.50;85.10;;;;;;10249074;28;20701;-26
2021/07/06 15:05:45;;;;;;;2.80;0.90;;;20.60;85.30;;;;;;10251056;28;20212;-26
2021/07/06 15:11:08;;;;;;;1.10;1.00;;;20.60;85.40;;;;;;10248130;28;20220;-27
2021/07/06 15:16:31;;;;;;;1.67;1.00;;;20.60;85.20;;;;;;10248668;28;20212;-27
2021/07/06 15:21:53;;;;;;;1.87;0.97;;;20.60;85.30;;;;;;10248606;28;20599;-26
2021/07/06 15:27:16;;;;;;;0.87;0.80;;;20.60;85.80;;;;;;10246917;29;20228;-26
2021/07/06 15:32:39;;;;;;;1.73;0.80;;;20.60;85.00;;;;;;10245227;29;20721;-26
2021/07/06 15:38:01;;;;;;;1.77;1.00;;;20.60;85.10;;;;;;10245231;28;20224;-27
2021/07/06 15:43:24;;;;;;;1.50;1.00;;;20.60;84.90;;;;;;10227109;29;20207;-27
2021/07/06 15:48:47;;;;;;;2.07;0.80;;;20.60;84.90;;;;;;10287974;22;20225;-24
2021/07/06 15:54:11;;;;;;;5.17;1.00;;;20.50;84.80;;;;;;10415803;28;20333;-23
2021/07/06 15:59:34;;;;;;;1.00;0.87;;;20.50;84.90;;;;;;10406106;28;20593;-23
2021/07/06 16:04:56;;;;;;;0.63;0.63;;;20.50;84.90;;;;;;10414045;28;20198;-24
2021/07/06 16:10:19;;;;;;;1.10;0.80;;;20.50;84.80;;;;;;10406669;28;20221;-24
2021/07/06 16:15:43;;;;;;;0.80;0.80;;;20.50;84.70;;;;;;10415178;28;20688;-24
2021/07/06 16:21:05;;;;;;;2.23;1.03;;;20.50;84.90;;;;;;10414128;28;20209;-23
2021/07/06 16:26:29;;;;;;;0.83;0.80;;;20.50;84.70;;;;;;10414078;28;20570;-23
2021/07/06 16:31:52;;;;;;;0.60;0.60;;;20.50;84.80;;;;;;10412435;28;20237;-23
2021/07/06 16:37:18;;;;;;;0.60;0.60;;;20.50;84.70;;;;;;10428885;28;20389;-23
2021/07/06 16:42:40;;;;;;;0.70;0.70;;;20.50;84.80;;;;;;10413272;28;20198;-24
2021/07/06 16:48:04;;;;;;;0.87;0.80;;;20.50;84.80;;;;;;10409313;28;20297;-24
2021/07/06 18:07:18;;;;;;;2.53;0.73;;;20.40;84.70;;;;;;10423482;28;20325;-25
2021/07/06 18:12:42;;;;;;;0.80;0.80;;;20.40;84.60;;;;;;10410377;28;20198;-23
2021/07/06 18:18:05;;;;;;;0.80;0.80;;;20.40;84.50;;;;;;10408718;28;20573;-23
2021/07/06 18:23:27;;;;;;;0.70;0.70;;;20.40;84.40;;;;;;10410094;28;20201;-23
2021/07/06 18:28:50;;;;;;;0.70;0.70;;;20.40;84.40;;;;;;10412302;28;20738;-23
2021/07/06 18:34:13;;;;;;;0.63;0.63;;;20.40;85.10;;;;;;10429984;28;20197;-24
2021/07/06 18:39:35;;;;;;;0.57;0.57;;;20.40;84.50;;;;;;10445405;28;20636;-25
2021/07/06 18:44:58;;;;;;;0.80;0.70;;;20.40;84.40;;;;;;10427820;28;20579;-24
2021/07/06 18:50:20;;;;;;;0.60;0.60;;;20.40;84.40;;;;;;10401096;28;20237;-23
2021/07/06 18:55:42;;;;;;;1.33;0.60;;;20.40;84.50;;;;;;10363953;28;20206;-23
2021/07/06 19:01:06;;;;;;;0.70;0.50;;;20.40;84.40;;;;;;10390268;28;20217;-24
2021/07/06 19:06:28;;;;;;;1.23;0.73;;;20.40;84.40;;;;;;10404129;28;20228;-26
2021/07/06 19:11:50;;;;;;;0.87;0.70;;;20.40;84.40;;;;;;10409103;28;20237;-23
2021/07/06 19:17:13;;;;;;;0.60;0.60;;;20.40;84.50;;;;;;10423422;28;20476;-23
2021/07/06 19:22:36;;;;;;;0.70;0.70;;;20.40;84.40;;;;;;10422671;28;20201;-23
2021/07/06 19:28:16;;;;;;;1.00;0.70;;;20.40;84.40;;;;;;10410261;28;20222;-23
2021/07/06 19:33:39;;;;;;;0.60;0.60;;;20.40;84.40;;;;;;10410598;28;20198;-23
2021/07/06 19:39:01;;;;;;;0.60;0.60;;;20.40;84.40;;;;;;10410188;28;20217;-24
2021/07/06 19:44:24;;;;;;;0.97;0.87;;;20.40;84.30;;;;;;10410148;28;20665;-23
2021/07/06 19:49:47;;;;;;;0.90;0.60;;;20.40;84.40;;;;;;10420041;28;20221;-23
2021/07/06 19:55:11;;;;;;;0.70;0.70;;;20.40;84.40;;;;;;10440012;28;20189;-24
2021/07/06 20:00:33;;;;;;;0.60;0.60;;;20.40;84.30;;;;;;10431982;28;20715;-23
2021/07/06 20:05:56;;;;;;;0.77;0.70;;;20.40;84.20;;;;;;10434607;28;20201;-23
2021/07/06 20:11:18;;;;;;;1.00;0.70;;;20.40;84.30;;;;;;10432439;28;20213;-24
2021/07/06 20:16:41;;;;;;;0.80;0.70;;;20.40;84.30;;;;;;10430301;28;20217;-23
2021/07/06 20:22:04;;;;;;;0.60;0.60;;;20.30;84.30;;;;;;10429846;28;20213;-23
2021/07/06 20:27:26;;;;;;;0.90;0.60;;;20.30;84.10;;;;;;10422423;28;20244;-22
2021/07/06 20:32:48;;;;;;;0.50;0.50;;;20.40;84.30;;;;;;10413057;28;20194;-23
2021/07/06 20:38:12;;;;;;;1.53;0.60;;;20.30;84.10;;;;;;10413692;28;20205;-21
2021/07/06 20:43:34;;;;;;;0.70;0.60;;;20.30;84.00;;;;;;10412596;28;20534;-24
2021/07/06 20:48:56;;;;;;;0.70;0.70;;;20.30;84.10;;;;;;10413163;28;20774;-24
2021/07/06 20:54:20;;;;;;;1.37;0.70;;;20.30;84.00;;;;;;10406749;28;20210;-24
2021/07/06 20:59:42;;;;;;;1.33;0.80;;;20.30;84.00;;;;;;10413100;28;20206;-25
2021/07/06 21:05:06;;;;;;;2.43;0.60;;;20.30;83.90;;;;;;10412826;28;20206;-23
2021/07/06 21:10:30;;;;;;;1.37;0.93;;;20.30;83.90;;;;;;10412874;28;20225;-22
2021/07/06 21:15:52;;;;;;;0.80;0.60;;;20.30;83.80;;;;;;10409745;28;20224;-23
2021/07/06 21:21:14;;;;;;;0.70;0.70;;;20.30;83.70;;;;;;10406858;28;20214;-23
2021/07/06 21:26:38;;;;;;;2.60;0.80;;;20.30;83.70;;;;;;10379955;28;20320;-25
2021/07/06 21:32:00;;;;;;;1.47;0.60;;;20.30;83.70;;;;;;10408075;28;20210;-23
2021/07/06 21:37:22;;;;;;;3.10;0.87;;;20.30;83.50;;;;;;10412629;28;20190;-24
2021/07/06 21:42:46;;;;;;;0.90;0.70;;;20.30;83.50;;;;;;10409521;28;20204;-24
2021/07/06 21:53:10;;;;;;;1.47;0.90;;;20.30;83.40;;;;;;10467773;23;20259;-27
2021/07/06 21:58:33;;;;;;;1.33;0.80;;;20.30;83.20;;;;;;10452216;28;20212;-27
2021/07/06 22:03:55;;;;;;;1.63;0.80;;;20.30;83.00;;;;;;10482837;28;20207;-27
2021/07/06 22:09:17;;;;;;;1.30;0.83;;;20.30;82.70;;;;;;10467549;28;20221;-26
2021/07/06 22:14:41;;;;;;;1.03;0.70;;;20.30;82.80;;;;;;10452346;28;20200;-27
2021/07/06 22:20:03;;;;;;;3.97;0.70;;;20.30;82.80;;;;;;10453149;28;20215;-29
2021/07/06 22:25:26;;;;;;;0.83;0.53;;;20.30;82.50;;;;;;10492512;28;20710;-28
2021/07/06 22:30:49;;;;;;;0.83;0.73;;;20.30;82.20;;;;;;10483373;28;20219;-29
2021/07/06 22:36:11;;;;;;;0.70;0.70;;;20.30;83.00;;;;;;10492188;28;20211;-27
2021/07/06 22:41:33;;;;;;;1.50;0.83;;;20.30;82.30;;;;;;10482612;28;20224;-26
2021/07/06 22:46:56;;;;;;;2.57;0.87;;;20.30;83.10;;;;;;10457628;28;20204;-25
2021/07/06 22:52:19;;;;;;;1.87;0.90;;;20.30;82.20;;;;;;10490730;28;20216;-27
2021/07/06 22:57:41;;;;;;;1.83;0.70;;;20.30;82.10;;;;;;10498852;28;20195;-26
2021/07/06 23:03:04;;;;;;;1.97;0.60;;;20.30;81.80;;;;;;10498465;28;20216;-26
2021/07/06 23:08:26;;;;;;;3.87;0.80;;;20.30;81.30;;;;;;10500441;28;20216;-27
2021/07/06 23:13:48;;;;;;;1.20;0.70;;;20.30;80.80;;;;;;10499785;28;20203;-27
2021/07/06 23:19:12;;;;;;;3.83;0.67;;;20.20;80.50;;;;;;10499412;28;20204;-28
2021/07/06 23:24:34;;;;;;;1.40;0.70;;;20.20;79.80;;;;;;10496847;28;20711;-27
2021/07/06 23:29:57;;;;;;;1.33;0.73;;;20.30;79.80;;;;;;10496382;28;20220;-27
2021/07/06 23:35:21;;;;;;;1.27;0.80;;;20.20;79.60;;;;;;10496341;28;20200;-28
2021/07/06 23:40:43;;;;;;;3.70;0.80;;;20.30;79.60;;;;;;10496742;28;20699;-27
2021/07/06 23:46:05;;;;;;;3.57;0.87;;;20.30;79.30;;;;;;10498253;28;20215;-26
2021/07/06 23:51:28;;;;;;;2.27;0.80;;;20.20;78.90;;;;;;10510190;28;20572;-28
2021/07/06 23:56:50;;;;;;;3.77;1.10;;;20.20;78.60;;;;;;10513681;28;20207;-28
